Terminal Aerodrome Forecast
Issued by NWS

Home | Current Version | Previous Version | Graphics & Text | Print | Product List | Glossary On
Versions: 1 2 3 4 5 6 7 8 9 10 11 12 13 14 15 16 17 18 19 20
000
FTUS43 KMPX 250800 AAA
TAFRWF
TAF AMD
KRWF 250816Z 2508/2606 31009KT P6SM FEW090
     FM251100 29008KT P6SM OVC050
     FM251600 24006KT P6SM BKN035
     FM260000 14005KT P6SM SCT020 OVC080=

USA.gov is the U.S. government's official web portal to all federal, state and local government web resources and services.